MUC863 LOWS-LOWI

Flight info

Callsign MUC863
Flight time 1h 4m
Altitude 4500
Route VFR
Aircraft C172/L-VGD/A

Departure

Time 2026-05-07 10:15
Airport Salzburg Airport (LOWS)

Arrival

Time 2026-05-07 11:19
Airport Innsbruck Airport (LOWI)
Time Latitude Longitude Altitude Speed Heading
2026-05-07 10:11 47.79307 12.99770 1409 ft 0 kts 13°
2026-05-07 10:11 47.79309 12.99770 1409 ft 3 kts 21°
2026-05-07 10:11 47.79330 12.99850 1409 ft 11 kts 103°
2026-05-07 10:12 47.79329 12.99969 1413 ft 14 kts 64°
2026-05-07 10:12 47.79348 13.00111 1412 ft 15 kts 120°
2026-05-07 10:12 47.79263 13.00178 1412 ft 13 kts 155°
2026-05-07 10:12 47.79172 13.00232 1409 ft 17 kts 154°
2026-05-07 10:13 47.79034 13.00321 1414 ft 29 kts 158°
2026-05-07 10:13 47.78830 13.00446 1409 ft 34 kts 156°
2026-05-07 10:13 47.78622 13.00580 1409 ft 22 kts 156°
2026-05-07 10:13 47.78530 13.00706 1409 ft 19 kts 87°
2026-05-07 10:14 47.78584 13.00856 1409 ft 14 kts 22°
2026-05-07 10:14 47.78643 13.00828 1410 ft 14 kts 336°
2026-05-07 10:14 47.78901 13.00670 1413 ft 64 kts 336°
2026-05-07 10:14 47.79393 13.00358 1494 ft 85 kts 336°
2026-05-07 10:15 47.79934 12.99997 1708 ft 89 kts 333°
2026-05-07 10:15 47.80514 12.99615 1899 ft 93 kts 334°
2026-05-07 10:15 47.81111 12.99187 2076 ft 98 kts 336°
2026-05-07 10:15 47.81802 12.99204 2311 ft 104 kts
2026-05-07 10:16 47.82538 12.99370 2515 ft 113 kts
2026-05-07 10:16 47.83376 12.99587 2520 ft 130 kts
2026-05-07 10:16 47.84291 12.99809 2515 ft 134 kts
2026-05-07 10:16 47.85179 13.00067 2510 ft 131 kts 15°
2026-05-07 10:17 47.85880 13.00964 2517 ft 134 kts 42°
2026-05-07 10:17 47.86537 13.01902 2568 ft 133 kts 40°
2026-05-07 10:17 47.87197 13.02847 2723 ft 131 kts 40°
2026-05-07 10:17 47.87789 13.03888 2823 ft 137 kts 69°
2026-05-07 10:18 47.87815 13.05294 2898 ft 136 kts 99°
2026-05-07 10:18 47.87350 13.06410 3031 ft 125 kts 153°
2026-05-07 10:18 47.86561 13.06885 3166 ft 123 kts 171°
2026-05-07 10:18 47.85724 13.07217 3253 ft 126 kts 171°
2026-05-07 10:19 47.84876 13.07554 3335 ft 126 kts 171°
2026-05-07 10:19 47.84048 13.07915 3376 ft 121 kts 171°
2026-05-07 10:19 47.83254 13.08267 3443 ft 117 kts 171°
2026-05-07 10:19 47.82482 13.08611 3579 ft 115 kts 171°
2026-05-07 10:20 47.81718 13.08946 3712 ft 115 kts 171°
2026-05-07 10:20 47.80951 13.09283 3848 ft 117 kts 171°
2026-05-07 10:20 47.80159 13.09503 3981 ft 116 kts 185°
2026-05-07 10:20 47.79337 13.09552 4114 ft 120 kts 184°
2026-05-07 10:21 47.78521 13.09602 4232 ft 114 kts 185°
2026-05-07 10:21 47.77744 13.09672 4352 ft 109 kts 185°
2026-05-07 10:21 47.77002 13.09753 4471 ft 105 kts 185°
2026-05-07 10:21 47.76265 13.09839 4517 ft 109 kts 185°
2026-05-07 10:22 47.75497 13.09917 4523 ft 112 kts 185°
2026-05-07 10:22 47.74700 13.09984 4530 ft 117 kts 185°
2026-05-07 10:22 47.73882 13.10052 4528 ft 116 kts 191°
2026-05-07 10:22 47.73207 13.09555 4526 ft 110 kts 218°
2026-05-07 10:23 47.72521 13.09043 4525 ft 113 kts 206°
2026-05-07 10:23 47.71730 13.08806 4529 ft 118 kts 199°
2026-05-07 10:23 47.70889 13.08901 4523 ft 128 kts 174°
2026-05-07 10:23 47.70044 13.09232 4628 ft 122 kts 173°
2026-05-07 10:24 47.69243 13.09568 4743 ft 118 kts 172°
2026-05-07 10:24 47.68462 13.09903 4859 ft 115 kts 169°
2026-05-07 10:24 47.67688 13.10165 4986 ft 113 kts 174°
2026-05-07 10:24 47.66926 13.10435 5101 ft 112 kts 173°
2026-05-07 10:25 47.66200 13.10702 5201 ft 101 kts 173°
2026-05-07 10:25 47.65552 13.10940 5270 ft 94 kts 170°
2026-05-07 10:25 47.64862 13.11139 5356 ft 106 kts 172°
2026-05-07 10:25 47.64111 13.11332 5446 ft 113 kts 179°
2026-05-07 10:26 47.63348 13.11093 5529 ft 112 kts 218°
2026-05-07 10:26 47.62849 13.10252 5618 ft 109 kts 259°
2026-05-07 10:26 47.62792 13.09143 5720 ft 108 kts 272°
2026-05-07 10:26 47.62826 13.08011 5815 ft 112 kts 274°
2026-05-07 10:27 47.62877 13.06874 5884 ft 109 kts 275°
2026-05-07 10:27 47.62929 13.05770 5959 ft 106 kts 275°
2026-05-07 10:27 47.62987 13.04688 6031 ft 104 kts 275°
2026-05-07 10:27 47.63044 13.03618 6106 ft 104 kts 275°
2026-05-07 10:28 47.63092 13.02541 6186 ft 105 kts 275°
2026-05-07 10:28 47.63139 13.01457 6261 ft 106 kts 274°
2026-05-07 10:28 47.63191 13.00358 6341 ft 108 kts 275°
2026-05-07 10:28 47.63240 12.99249 6413 ft 107 kts 275°
2026-05-07 10:29 47.63288 12.98165 6490 ft 105 kts 274°
2026-05-07 10:29 47.63215 12.97086 6562 ft 105 kts 264°
2026-05-07 10:29 47.63123 12.96017 6631 ft 104 kts 264°
2026-05-07 10:30 47.62935 12.93890 6771 ft 101 kts 264°
2026-05-07 10:30 47.62862 12.92858 6852 ft 102 kts 264°
2026-05-07 10:30 47.62796 12.91796 6913 ft 102 kts 265°
2026-05-07 10:30 47.62719 12.90738 6994 ft 105 kts 265°
2026-05-07 10:31 47.62631 12.89661 7068 ft 107 kts 263°
2026-05-07 10:31 47.62557 12.88555 7151 ft 110 kts 265°
2026-05-07 10:31 47.62479 12.87404 7229 ft 114 kts 264°
2026-05-07 10:31 47.62395 12.86241 7302 ft 112 kts 264°
2026-05-07 10:32 47.62324 12.85111 7338 ft 105 kts 265°
2026-05-07 10:32 47.62264 12.84083 7345 ft 103 kts 264°
2026-05-07 10:32 47.62189 12.83065 7452 ft 95 kts 264°
2026-05-07 10:32 47.62121 12.82101 7512 ft 99 kts 264°
2026-05-07 10:33 47.62049 12.81037 7525 ft 106 kts 264°
2026-05-07 10:33 47.61971 12.79935 7524 ft 108 kts 265°
2026-05-07 10:33 47.61894 12.78834 7520 ft 110 kts 264°
2026-05-07 10:33 47.61820 12.77715 7520 ft 109 kts 264°
2026-05-07 10:34 47.61751 12.76577 7519 ft 111 kts 264°
2026-05-07 10:34 47.61618 12.75467 7515 ft 109 kts 254°
2026-05-07 10:34 47.61378 12.74399 7505 ft 110 kts 248°
2026-05-07 10:34 47.60866 12.73557 7503 ft 113 kts 222°
2026-05-07 10:35 47.60185 12.72992 7504 ft 113 kts 204°
2026-05-07 10:35 47.59428 12.72613 7519 ft 117 kts 205°
2026-05-07 10:35 47.58696 12.72109 7517 ft 114 kts 219°
2026-05-07 10:35 47.58162 12.71285 7520 ft 112 kts 242°
2026-05-07 10:36 47.57869 12.70217 7518 ft 113 kts 257°
2026-05-07 10:36 47.57773 12.69076 7518 ft 111 kts 264°
2026-05-07 10:36 47.57694 12.67933 7515 ft 112 kts 265°
2026-05-07 10:36 47.57613 12.66757 7397 ft 117 kts 265°
2026-05-07 10:37 47.57529 12.65558 7273 ft 115 kts 265°
2026-05-07 10:37 47.57448 12.64385 7154 ft 115 kts 264°
2026-05-07 10:37 47.57369 12.63207 7037 ft 115 kts 265°
2026-05-07 10:37 47.57282 12.62036 6910 ft 114 kts 265°
2026-05-07 10:38 47.57187 12.60885 6776 ft 111 kts 264°
2026-05-07 10:38 47.57099 12.59756 6661 ft 111 kts 264°
2026-05-07 10:38 47.56984 12.58600 6530 ft 116 kts 252°
2026-05-07 10:38 47.56606 12.57525 6372 ft 120 kts 245°
2026-05-07 10:39 47.56171 12.56482 6177 ft 121 kts 228°
2026-05-07 10:39 47.55385 12.55993 5991 ft 127 kts 197°
2026-05-07 10:39 47.54499 12.55954 5789 ft 129 kts 175°
2026-05-07 10:39 47.53650 12.56396 5609 ft 129 kts 165°
2026-05-07 10:40 47.52804 12.56860 5429 ft 130 kts 163°
2026-05-07 10:40 47.51935 12.57268 5255 ft 131 kts 165°
2026-05-07 10:40 47.51095 12.57655 5215 ft 124 kts 164°
2026-05-07 10:40 47.50229 12.57769 4960 ft 131 kts 201°
2026-05-07 10:41 47.49603 12.56895 4716 ft 121 kts 234°
2026-05-07 10:41 47.49131 12.55905 4438 ft 114 kts 249°
2026-05-07 10:41 47.49132 12.54817 4216 ft 100 kts 283°
2026-05-07 10:41 47.49253 12.53846 4090 ft 94 kts 280°
2026-05-07 10:42 47.49374 12.52842 4089 ft 104 kts 282°
2026-05-07 10:42 47.49522 12.51776 4107 ft 111 kts 286°
2026-05-07 10:42 47.49736 12.50698 4170 ft 109 kts 287°
2026-05-07 10:42 47.49975 12.49661 3984 ft 103 kts 293°
2026-05-07 10:43 47.50260 12.48708 3712 ft 101 kts 297°
2026-05-07 10:43 47.50581 12.47773 3302 ft 105 kts 299°
2026-05-07 10:43 47.50977 12.46817 2828 ft 111 kts 307°
2026-05-07 10:43 47.51447 12.45923 2435 ft 105 kts 311°
2026-05-07 10:44 47.51905 12.45150 2214 ft 88 kts 311°
2026-05-07 10:44 47.52236 12.44602 2192 ft 53 kts 312°
2026-05-07 10:44 47.52394 12.44336 2180 ft 18 kts 310°
2026-05-07 10:44 47.52402 12.44261 2176 ft 5 kts 196°
2026-05-07 10:45 47.52362 12.44262 2181 ft 7 kts 139°
2026-05-07 10:45 47.52318 12.44325 2180 ft 10 kts 134°
2026-05-07 10:45 47.52273 12.44378 2184 ft 9 kts 168°
2026-05-07 10:45 47.52199 12.44342 2190 ft 13 kts 197°
2026-05-07 10:46 47.52108 12.44295 2190 ft 13 kts 198°
2026-05-07 10:46 47.52076 12.44357 2188 ft 12 kts 100°
2026-05-07 10:46 47.52061 12.44468 2193 ft 12 kts 105°
2026-05-07 10:46 47.52048 12.44541 2194 ft 10 kts 105°
2026-05-07 10:47 47.52072 12.44642 2195 ft 13 kts 39°
2026-05-07 10:47 47.52080 12.44741 2201 ft 13 kts 123°
2026-05-07 10:47 47.52014 12.44839 2204 ft 15 kts 136°
2026-05-07 10:47 47.51940 12.44927 2207 ft 11 kts 166°
2026-05-07 10:48 47.51888 12.44967 2209 ft 6 kts 225°
2026-05-07 10:48 47.51873 12.44954 2209 ft 2 kts 110°
2026-05-07 10:48 47.51876 12.44963 2209 ft 0 kts 40°
2026-05-07 10:52 47.51882 12.44970 2206 ft 7 kts 40°
2026-05-07 10:52 47.51842 12.45086 2209 ft 20 kts 122°
2026-05-07 10:52 47.51788 12.45245 2212 ft 10 kts 81°
2026-05-07 10:53 47.51832 12.45266 2211 ft 3 kts 310°
2026-05-07 10:53 47.51877 12.45185 2210 ft 35 kts 310°
2026-05-07 10:53 47.52165 12.44718 2202 ft 83 kts 312°
2026-05-07 10:53 47.52570 12.44036 2382 ft 93 kts 309°
2026-05-07 10:54 47.52959 12.43255 2614 ft 95 kts 305°
2026-05-07 10:54 47.53313 12.42448 2877 ft 93 kts 294°
2026-05-07 10:54 47.53390 12.41480 3013 ft 102 kts 280°
2026-05-07 10:54 47.53472 12.40375 3016 ft 113 kts 278°
2026-05-07 10:55 47.53472 12.39237 3162 ft 106 kts 262°
2026-05-07 10:55 47.53305 12.38217 3366 ft 97 kts 253°
2026-05-07 10:55 47.53063 12.37261 3500 ft 102 kts 255°
2026-05-07 10:55 47.52815 12.36246 3631 ft 107 kts 255°
2026-05-07 10:56 47.52564 12.35201 3771 ft 108 kts 255°
2026-05-07 10:56 47.52334 12.34114 3900 ft 111 kts 262°
2026-05-07 10:56 47.52228 12.32982 4031 ft 112 kts 264°
2026-05-07 10:56 47.52131 12.31831 4164 ft 114 kts 264°
2026-05-07 10:57 47.52038 12.30669 4295 ft 114 kts 264°
2026-05-07 10:57 47.52038 12.29511 4431 ft 112 kts 275°
2026-05-07 10:57 47.52094 12.28351 4502 ft 117 kts 275°
2026-05-07 10:57 47.52157 12.27136 4511 ft 123 kts 274°
2026-05-07 10:58 47.52115 12.25870 4502 ft 126 kts 249°
2026-05-07 10:58 47.51722 12.24715 4504 ft 126 kts 244°
2026-05-07 10:58 47.51333 12.23581 4502 ft 121 kts 243°
2026-05-07 10:58 47.50957 12.22486 4495 ft 118 kts 244°
2026-05-07 10:59 47.50586 12.21407 4496 ft 117 kts 243°
2026-05-07 10:59 47.50218 12.20339 4494 ft 116 kts 243°
2026-05-07 10:59 47.49857 12.19281 4497 ft 115 kts 244°
2026-05-07 10:59 47.49502 12.18222 4498 ft 113 kts 245°
2026-05-07 11:00 47.49164 12.17174 4502 ft 112 kts 244°
2026-05-07 11:00 47.48828 12.16138 4500 ft 113 kts 249°
2026-05-07 11:00 47.48715 12.14980 4511 ft 116 kts 264°
2026-05-07 11:00 47.48633 12.13791 4515 ft 117 kts 264°
2026-05-07 11:01 47.48554 12.12589 4507 ft 118 kts 265°
2026-05-07 11:01 47.48474 12.11384 4509 ft 117 kts 264°
2026-05-07 11:01 47.48394 12.10193 4504 ft 116 kts 264°
2026-05-07 11:01 47.48316 12.09015 4503 ft 115 kts 264°
2026-05-07 11:02 47.48242 12.07846 4497 ft 114 kts 264°
2026-05-07 11:02 47.48168 12.06686 4498 ft 113 kts 264°
2026-05-07 11:02 47.48071 12.05525 4500 ft 115 kts 261°
2026-05-07 11:02 47.47952 12.04352 4500 ft 116 kts 262°
2026-05-07 11:03 47.47804 12.03180 4499 ft 116 kts 254°
2026-05-07 11:03 47.47554 12.02055 4497 ft 115 kts 245°
2026-05-07 11:03 47.47199 12.00974 4501 ft 119 kts 245°
2026-05-07 11:03 47.46834 11.99864 4504 ft 121 kts 244°
2026-05-07 11:04 47.46463 11.98738 4508 ft 123 kts 245°
2026-05-07 11:04 47.46088 11.97596 4508 ft 124 kts 244°
2026-05-07 11:04 47.45711 11.96453 4509 ft 124 kts 244°
2026-05-07 11:04 47.45334 11.95307 4509 ft 124 kts 244°
2026-05-07 11:05 47.44955 11.94158 4509 ft 124 kts 244°
2026-05-07 11:05 47.44578 11.93009 4510 ft 124 kts 244°
2026-05-07 11:05 47.44199 11.91863 4507 ft 125 kts 244°
2026-05-07 11:05 47.43820 11.90718 4504 ft 123 kts 245°
2026-05-07 11:06 47.43443 11.89579 4498 ft 124 kts 244°
2026-05-07 11:06 47.43066 11.88439 4505 ft 125 kts 244°
2026-05-07 11:06 47.42677 11.87301 4499 ft 127 kts 240°
2026-05-07 11:06 47.42163 11.86239 4498 ft 127 kts 234°
2026-05-07 11:07 47.41648 11.85192 4497 ft 126 kts 235°
2026-05-07 11:07 47.41123 11.84133 4496 ft 126 kts 234°
2026-05-07 11:07 47.40613 11.83103 4498 ft 126 kts 234°
2026-05-07 11:07 47.40094 11.82053 4499 ft 126 kts 235°
2026-05-07 11:08 47.39561 11.81009 4498 ft 129 kts 234°
2026-05-07 11:08 47.39007 11.79954 4502 ft 131 kts 234°
2026-05-07 11:08 47.38447 11.78873 4501 ft 133 kts 238°
2026-05-07 11:08 47.37940 11.77724 4460 ft 135 kts 239°
2026-05-07 11:09 47.37441 11.76565 4404 ft 132 kts 239°
2026-05-07 11:09 47.36945 11.75418 4356 ft 133 kts 239°
2026-05-07 11:09 47.36446 11.74271 4285 ft 133 kts 239°
2026-05-07 11:09 47.35994 11.73070 4185 ft 135 kts 245°
2026-05-07 11:10 47.35558 11.71826 4080 ft 137 kts 244°
2026-05-07 11:10 47.35121 11.70582 3990 ft 137 kts 245°
2026-05-07 11:10 47.34683 11.69358 3985 ft 132 kts 244°
2026-05-07 11:10 47.34241 11.68199 3963 ft 128 kts 231°
2026-05-07 11:11 47.33498 11.67548 3971 ft 124 kts 204°
2026-05-07 11:11 47.32721 11.67022 3971 ft 122 kts 204°
2026-05-07 11:11 47.31957 11.66509 3968 ft 120 kts 204°
2026-05-07 11:11 47.31198 11.65999 3967 ft 120 kts 204°
2026-05-07 11:12 47.30535 11.65278 3970 ft 119 kts 226°
2026-05-07 11:12 47.30092 11.64260 3976 ft 119 kts 245°
2026-05-07 11:12 47.29726 11.63152 3975 ft 120 kts 245°
2026-05-07 11:12 47.29363 11.62049 3973 ft 119 kts 244°
2026-05-07 11:13 47.29004 11.60965 3969 ft 117 kts 244°
2026-05-07 11:13 47.28646 11.59890 3967 ft 116 kts 244°
2026-05-07 11:13 47.28290 11.58820 3969 ft 116 kts 244°
2026-05-07 11:13 47.27955 11.57726 3969 ft 118 kts 250°
2026-05-07 11:14 47.27660 11.56603 3967 ft 117 kts 249°
2026-05-07 11:14 47.27370 11.55485 3963 ft 116 kts 249°
2026-05-07 11:14 47.27080 11.54382 3962 ft 115 kts 249°
2026-05-07 11:14 47.26792 11.53279 3961 ft 116 kts 249°
2026-05-07 11:15 47.26502 11.52167 3962 ft 117 kts 249°
2026-05-07 11:15 47.26211 11.51048 3963 ft 117 kts 249°
2026-05-07 11:15 47.25918 11.49933 3962 ft 117 kts 249°
2026-05-07 11:15 47.25624 11.48816 3961 ft 117 kts 249°
2026-05-07 11:16 47.25330 11.47696 3962 ft 118 kts 249°
2026-05-07 11:16 47.25038 11.46573 3962 ft 118 kts 249°
2026-05-07 11:16 47.24792 11.45424 3963 ft 119 kts 254°
2026-05-07 11:16 47.24565 11.44259 3963 ft 118 kts 255°
2026-05-07 11:17 47.24340 11.43091 3961 ft 118 kts 255°
2026-05-07 11:17 47.24115 11.41928 3963 ft 118 kts 255°
2026-05-07 11:17 47.23955 11.40756 3961 ft 117 kts 279°
2026-05-07 11:17 47.24452 11.39905 3799 ft 115 kts 340°
2026-05-07 11:18 47.25271 11.39588 3160 ft 129 kts 346°
2026-05-07 11:18 47.26039 11.39044 2717 ft 124 kts 321°
2026-05-07 11:18 47.26387 11.37954 2321 ft 120 kts 268°
2026-05-07 11:18 47.26289 11.36829 2086 ft 104 kts 268°
2026-05-07 11:19 47.26225 11.35832 1964 ft 93 kts 268°
2026-05-07 11:19 47.26176 11.34922 1920 ft 85 kts 270°
2026-05-07 11:19 47.26113 11.34113 1899 ft 72 kts 264°
2026-05-07 11:19 47.26061 11.33563 1898 ft 34 kts 261°
2026-05-07 11:20 47.26057 11.33397 1893 ft 9 kts 59°
2026-05-07 11:20 47.26079 11.33606 1898 ft 28 kts 81°
2026-05-07 11:20 47.26111 11.33919 1893 ft 34 kts 82°
2026-05-07 11:20 47.26151 11.34286 1899 ft 35 kts 82°
2026-05-07 11:21 47.26178 11.34539 1899 ft 10 kts 80°
2026-05-07 11:21 47.26205 11.34582 1899 ft 4 kts 78°
2026-05-07 11:21 47.26212 11.34622 1894 ft 4 kts 60°
2026-05-07 11:21 47.26224 11.34645 1899 ft 2 kts 31°
2026-05-07 11:22 47.26225 11.34646 1899 ft 0 kts
2026-05-07 11:22 47.26227 11.34630 1899 ft 4 kts 234°
2026-05-07 11:22 47.26224 11.34623 1899 ft 0 kts 237°